Time;durP1;ratioP1;P1;durP2;ratioP2;P2;SDS_P1;SDS_P2;PMS_P1;PMS_P2;Temp;Humidity;BMP_temperature;BMP_pressure;BME280_temperature;BME280_humidity;BME280_pressure;Samples;Min_cycle;Max_cycle;Signal;HPM_P1;HPM_P2
2021/10/23 00:00:07;;;;;;;;;25.25;22.50;;;;;11.09;69.12;102531.06;4981469;28;45309;-76
2021/10/23 00:02:33;;;;;;;;;20.00;17.25;;;;;11.14;69.39;102539.81;4982138;28;46162;-77
2021/10/23 00:04:58;;;;;;;;;27.75;23.75;;;;;11.13;69.27;102538.97;4982163;28;45219;-77
2021/10/23 00:07:23;;;;;;;;;25.00;21.75;;;;;11.16;69.16;102537.19;4981891;28;45553;-77
2021/10/23 00:09:49;;;;;;;;;21.75;19.00;;;;;11.18;69.37;102540.69;4982152;28;45209;-78
2021/10/23 00:12:15;;;;;;;;;23.50;21.00;;;;;11.22;69.35;102534.50;4981954;28;46546;-79
2021/10/23 00:14:40;;;;;;;;;27.75;23.00;;;;;11.22;69.44;102530.13;4981575;28;45851;-80
2021/10/23 00:17:06;;;;;;;;;23.25;21.00;;;;;11.24;68.83;102525.72;4981655;28;45407;-81
2021/10/23 00:19:32;;;;;;;;;22.00;19.25;;;;;11.29;69.23;102535.34;4981863;28;45248;-77
2021/10/23 00:21:57;;;;;;;;;20.25;17.25;;;;;11.28;69.31;102528.34;4981728;28;45271;-78
2021/10/23 00:24:22;;;;;;;;;20.50;17.50;;;;;11.30;69.13;102535.34;4982088;28;45255;-79
2021/10/23 00:26:48;;;;;;;;;25.50;19.00;;;;;11.33;69.39;102542.34;4981643;28;45300;-79
2021/10/23 00:29:13;;;;;;;;;22.75;19.25;;;;;11.36;69.13;102539.69;4981995;28;45412;-79
2021/10/23 00:31:39;;;;;;;;;19.50;18.75;;;;;11.35;69.33;102533.56;4982206;28;46387;-79
2021/10/23 00:34:04;;;;;;;;;26.00;18.50;;;;;11.37;69.02;102530.91;4980660;28;45338;-79
2021/10/23 00:36:29;;;;;;;;;22.00;17.75;;;;;11.40;69.02;102540.53;4982092;28;45408;-78
2021/10/23 00:38:55;;;;;;;;;25.50;19.00;;;;;11.42;68.99;102539.66;4980481;28;45542;-78
2021/10/23 00:41:20;;;;;;;;;16.50;14.50;;;;;11.42;69.09;102539.66;4981906;28;46239;-77
2021/10/23 00:43:47;;;;;;;;;18.25;17.25;;;;;11.43;69.19;102544.00;4981698;28;45471;-77
2021/10/23 00:46:13;;;;;;;;;23.50;16.25;;;;;11.46;69.02;102537.84;4980962;28;45418;-77
2021/10/23 00:48:40;;;;;;;;;14.00;12.25;;;;;11.46;68.07;102538.72;4980018;28;45811;-77
2021/10/23 00:51:05;;;;;;;;;11.75;11.50;;;;;11.45;68.38;102538.75;4980821;28;45469;-77
2021/10/23 00:53:32;;;;;;;;;11.75;10.00;;;;;11.48;68.68;102539.59;4981331;28;45211;-77
2021/10/23 00:55:57;;;;;;;;;12.00;10.00;;;;;11.52;68.89;102531.66;4964415;28;45259;-77
2021/10/23 00:58:23;;;;;;;;;12.50;12.50;;;;;11.56;68.53;102543.91;4981965;28;45327;-77
2021/10/23 01:00:48;;;;;;;;;16.00;13.50;;;;;11.59;68.19;102539.50;4980091;28;45355;-77
2021/10/23 01:03:14;;;;;;;;;14.50;13.00;;;;;11.60;68.24;102532.50;4981011;28;45344;-77
2021/10/23 01:05:41;;;;;;;;;15.75;15.00;;;;;11.63;68.25;102529.81;4981794;28;45452;-77
2021/10/23 01:08:06;;;;;;;;;11.00;11.00;;;;;11.65;67.33;102529.81;4981772;28;45717;-77
2021/10/23 01:10:32;;;;;;;;;15.00;12.25;;;;;11.66;66.82;102524.53;4979894;28;46346;-77
2021/10/23 01:12:58;;;;;;;;;14.00;11.75;;;;;11.69;66.36;102524.50;4981300;28;45729;-77
2021/10/23 01:15:26;;;;;;;;;11.75;9.25;;;;;11.69;66.96;102524.50;4981986;28;45314;-77
2021/10/23 01:17:54;;;;;;;;;14.50;11.75;;;;;11.77;67.21;102528.81;4981124;28;45417;-79
2021/10/23 01:20:21;;;;;;;;;8.50;8.50;;;;;11.81;66.72;102528.78;4979911;28;46156;-79
2021/10/23 01:22:48;;;;;;;;;8.75;7.75;;;;;11.85;66.75;102529.63;4981048;28;45679;-79
2021/10/23 01:25:13;;;;;;;;;10.50;8.00;;;;;11.91;66.90;102524.31;4980988;28;45214;-79
2021/10/23 01:27:40;;;;;;;;;8.50;7.75;;;;;11.93;67.15;102525.16;4981195;28;45211;-79
2021/10/23 01:30:08;;;;;;;;;9.75;7.75;;;;;11.93;66.04;102525.16;4981196;28;46603;-79
2021/10/23 01:32:33;;;;;;;;;13.00;7.50;;;;;11.92;66.30;102520.78;4979081;28;45785;-79
2021/10/23 01:34:59;;;;;;;;;11.75;10.75;;;;;11.96;66.89;102518.09;4981056;28;45446;-79
2021/10/23 01:37:42;;;;;;;;;9.00;8.75;;;;;11.96;66.95;102512.81;4980597;28;47237;-78
2021/10/23 01:40:16;;;;;;;;;13.25;10.00;;;;;11.98;66.76;102517.19;4980759;28;46282;-77
2021/10/23 01:42:42;;;;;;;;;10.50;8.00;;;;;12.00;67.09;102514.56;4979691;28;45441;-77
2021/10/23 01:45:09;;;;;;;;;11.00;9.75;;;;;12.02;66.79;102520.69;4980765;28;45234;-77
2021/10/23 01:47:40;;;;;;;;;9.50;8.25;;;;;12.03;67.28;102519.78;4980966;28;45480;-77
2021/10/23 01:50:12;;;;;;;;;11.75;10.50;;;;;12.01;66.94;102518.94;4979523;28;46432;-77
2021/10/23 01:52:39;;;;;;;;;9.50;8.25;;;;;11.99;67.21;102512.81;4981055;28;45715;-77
2021/10/23 01:55:05;;;;;;;;;8.25;7.00;;;;;12.00;67.12;102519.84;4980920;28;45395;-76
2021/10/23 01:57:30;;;;;;;;;14.00;10.00;;;;;11.97;67.29;102514.59;4980511;28;46678;-76
2021/10/23 01:59:56;;;;;;;;;8.00;7.50;;;;;11.95;67.35;102511.09;4979798;28;45434;-76
2021/10/23 02:02:21;;;;;;;;;11.75;9.25;;;;;11.91;67.38;102499.69;4981000;28;45364;-76
2021/10/23 02:04:46;;;;;;;;;9.25;9.00;;;;;11.93;67.41;102504.06;4980056;28;45243;-76
2021/10/23 02:07:12;;;;;;;;;8.50;7.75;;;;;11.91;67.41;102511.13;4980082;28;45416;-76
2021/10/23 02:09:37;;;;;;;;;6.50;6.00;;;;;11.90;67.13;102498.81;4980091;28;45277;-76
2021/10/23 02:12:03;;;;;;;;;8.75;8.25;;;;;11.91;67.60;102499.69;4980873;28;45376;-76
2021/10/23 02:14:28;;;;;;;;;9.50;8.00;;;;;11.91;67.78;102495.31;4980700;28;45499;-76
2021/10/23 02:16:54;;;;;;;;;9.00;9.00;;;;;11.86;67.72;102486.59;4979132;28;45518;-76
2021/10/23 02:19:19;;;;;;;;;12.00;8.75;;;;;11.87;67.45;102490.09;4979906;28;46088;-76
2021/10/23 02:21:44;;;;;;;;;8.00;6.75;;;;;11.86;67.49;102486.59;4980704;28;45419;-77
2021/10/23 02:24:10;;;;;;;;;7.50;6.75;;;;;11.87;67.59;102487.47;4980433;28;45301;-75
2021/10/23 02:26:35;;;;;;;;;11.75;8.50;;;;;11.85;67.66;102478.69;4979489;28;45532;-77
2021/10/23 02:29:01;;;;;;;;;9.50;8.50;;;;;11.86;67.56;102478.69;4980342;28;46262;-77
2021/10/23 02:31:26;;;;;;;;;7.25;7.00;;;;;11.84;67.56;102476.94;4980172;28;45415;-76
2021/10/23 02:33:51;;;;;;;;;7.00;6.50;;;;;11.87;67.65;102476.91;4980237;28;45472;-79
2021/10/23 02:36:17;;;;;;;;;7.75;7.00;;;;;11.83;67.38;102478.69;4979223;28;46153;-79
2021/10/23 02:38:42;;;;;;;;;8.75;7.75;;;;;11.86;67.42;102477.78;4980107;28;45891;-74
2021/10/23 02:41:07;;;;;;;;;8.50;7.50;;;;;11.85;67.58;102473.44;4979430;28;45329;-76
2021/10/23 02:43:33;;;;;;;;;5.75;5.75;;;;;11.85;67.11;102478.69;4979052;28;46393;-76
2021/10/23 02:45:58;;;;;;;;;8.00;6.25;;;;;11.85;67.12;102479.59;4980241;28;45595;-81
2021/10/23 02:48:24;;;;;;;;;9.75;7.00;;;;;11.84;67.01;102485.72;4978655;28;45601;-81
2021/10/23 02:50:49;;;;;;;;;9.00;6.50;;;;;11.85;67.11;102481.34;4978672;28;47192;-81
2021/10/23 02:53:15;;;;;;;;;9.50;7.00;;;;;11.87;67.33;102487.47;4975563;28;45230;-81
2021/10/23 02:55:40;;;;;;;;;10.25;8.25;;;;;11.86;67.35;102491.84;4979825;28;45506;-81
2021/10/23 02:58:06;;;;;;;;;11.75;10.00;;;;;11.88;67.39;102490.06;4979034;28;45205;-81
2021/10/23 03:00:31;;;;;;;;;11.50;9.75;;;;;11.88;67.46;102490.06;4979751;28;45529;-79
2021/10/23 03:02:57;;;;;;;;;11.00;8.75;;;;;11.88;67.65;102489.19;4979152;28;45273;-80
2021/10/23 03:05:22;;;;;;;;;12.25;10.00;;;;;11.89;67.46;102494.47;4980122;28;45217;-80
2021/10/23 03:07:48;;;;;;;;;11.00;8.25;;;;;11.87;67.54;102492.72;4958687;28;48099;-80
2021/10/23 03:10:15;;;;;;;;;10.25;9.00;;;;;11.88;67.55;102495.34;4977954;28;45450;-77
2021/10/23 03:12:40;;;;;;;;;10.00;9.75;;;;;11.87;67.30;102492.72;4983960;28;45440;-77
2021/10/23 03:15:07;;;;;;;;;11.50;10.75;;;;;11.87;67.34;102492.72;4982635;28;45294;-77
2021/10/23 03:17:32;;;;;;;;;13.75;10.00;;;;;11.85;67.39;102495.38;4965367;28;47247;-77
2021/10/23 03:19:57;;;;;;;;;9.75;9.50;;;;;11.87;67.28;102503.25;4982909;28;45438;-77
2021/10/23 03:22:24;;;;;;;;;13.25;10.25;;;;;11.88;68.01;102491.81;4983303;28;45333;-77
2021/10/23 03:24:49;;;;;;;;;10.25;10.25;;;;;11.85;67.29;102487.50;4982389;28;45610;-78
2021/10/23 03:27:17;;;;;;;;;10.75;9.50;;;;;11.85;67.63;102492.75;4965527;28;48345;-78
2021/10/23 03:29:44;;;;;;;;;10.25;8.75;;;;;11.84;67.36;102491.00;4983268;28;45700;-77
2021/10/23 03:32:10;;;;;;;;;12.75;8.00;;;;;11.84;67.31;102487.47;4983369;28;45447;-77
2021/10/23 03:34:35;;;;;;;;;10.75;7.25;;;;;11.88;67.32;102491.81;4963932;28;46077;-76
2021/10/23 03:37:00;;;;;;;;;5.00;5.00;;;;;11.84;67.05;102488.38;4982655;28;46160;-76
2021/10/23 03:39:25;;;;;;;;;6.75;5.00;;;;;11.87;67.43;102490.97;4983060;28;45298;-76
2021/10/23 03:41:51;;;;;;;;;9.00;6.25;;;;;11.88;67.11;102490.06;4982773;28;45329;-76
2021/10/23 03:44:16;;;;;;;;;6.00;6.00;;;;;11.87;67.61;102492.72;4981645;28;45630;-76
2021/10/23 03:46:42;;;;;;;;;6.75;5.75;;;;;11.87;67.48;102492.72;4982004;28;45400;-76
2021/10/23 03:49:07;;;;;;;;;5.50;5.00;;;;;11.87;67.72;102487.47;4982652;28;45344;-76
2021/10/23 03:51:33;;;;;;;;;5.25;5.25;;;;;11.88;67.33;102490.06;4983204;28;45333;-77
2021/10/23 03:53:58;;;;;;;;;6.00;5.75;;;;;11.89;67.17;102488.31;4981973;28;45270;-77
2021/10/23 03:56:23;;;;;;;;;7.25;6.00;;;;;11.88;67.32;102487.44;4982684;28;45218;-79
2021/10/23 03:58:49;;;;;;;;;6.00;6.00;;;;;11.87;67.75;102485.69;4964697;28;45405;-79
2021/10/23 04:01:15;;;;;;;;;9.50;8.00;;;;;11.88;67.65;102483.91;4963837;28;45243;-79
2021/10/23 04:03:40;;;;;;;;;8.50;8.00;;;;;11.87;67.45;102483.06;4964423;28;47368;-78
2021/10/23 04:06:05;;;;;;;;;8.00;6.00;;;;;11.88;67.57;102486.56;4964963;28;47044;-78
2021/10/23 04:08:31;;;;;;;;;8.50;5.75;;;;;11.90;67.54;102485.66;4982257;28;45361;-77
2021/10/23 04:10:56;;;;;;;;;5.75;5.75;;;;;11.88;67.63;102473.38;4981734;28;45274;-77
2021/10/23 04:13:21;;;;;;;;;6.00;6.00;;;;;11.90;67.64;102476.91;4982603;28;45475;-77
2021/10/23 04:15:47;;;;;;;;;9.00;8.75;;;;;11.90;67.64;102480.38;4982329;28;46190;-77
2021/10/23 04:18:12;;;;;;;;;7.50;5.75;;;;;11.90;67.54;102482.16;4982216;28;45305;-77
2021/10/23 04:20:37;;;;;;;;;10.50;7.75;;;;;11.91;67.43;102479.50;4980787;28;45254;-76
2021/10/23 04:23:03;;;;;;;;;6.50;6.00;;;;;11.91;67.20;102482.13;4982002;28;45464;-76
2021/10/23 04:25:28;;;;;;;;;10.25;9.25;;;;;11.91;67.70;102479.50;4964746;28;46466;-77
2021/10/23 04:27:54;;;;;;;;;6.75;5.75;;;;;11.91;67.78;102474.22;4964576;28;45832;-76
2021/10/23 04:30:19;;;;;;;;;9.00;8.50;;;;;11.91;67.39;102474.22;4981161;28;45631;-77
2021/10/23 04:32:44;;;;;;;;;6.00;5.25;;;;;11.93;67.38;102477.72;4982178;28;45517;-78
2021/10/23 04:35:10;;;;;;;;;8.00;7.00;;;;;11.91;67.29;102481.25;4981857;28;45385;-81
2021/10/23 04:37:35;;;;;;;;;10.75;7.00;;;;;11.92;67.46;102481.25;4982048;28;45425;-79
2021/10/23 04:40:01;;;;;;;;;5.25;5.25;;;;;11.94;67.53;102475.97;4982015;28;45351;-76
2021/10/23 04:42:26;;;;;;;;;7.25;7.00;;;;;11.96;67.46;102475.94;4981002;28;45384;-77
2021/10/23 04:44:52;;;;;;;;;7.00;6.00;;;;;11.98;67.60;102479.41;4981999;28;46043;-75
2021/10/23 04:47:18;;;;;;;;;6.00;5.50;;;;;11.96;67.33;102482.09;4981659;28;45386;-80
2021/10/23 04:49:43;;;;;;;;;6.50;6.50;;;;;11.96;67.34;102481.22;4981105;28;45319;-79
2021/10/23 04:52:09;;;;;;;;;9.75;6.00;;;;;11.93;67.28;102475.09;4981571;28;45219;-78
2021/10/23 04:54:34;;;;;;;;;8.00;6.00;;;;;11.93;67.01;102483.00;4982016;28;46531;-79
2021/10/23 04:56:59;;;;;;;;;7.00;6.25;;;;;11.95;67.30;102487.38;4981542;28;45246;-75
2021/10/23 04:59:26;;;;;;;;;6.50;6.50;;;;;11.97;67.26;102490.88;4979985;28;45380;-75
2021/10/23 05:01:51;;;;;;;;;7.50;6.75;;;;;11.97;67.41;102488.25;4964132;28;46216;-76
2021/10/23 05:04:16;;;;;;;;;9.00;8.00;;;;;11.96;67.42;102491.75;4979393;28;48568;-76
2021/10/23 05:06:42;;;;;;;;;5.50;5.00;;;;;11.95;67.51;102488.22;4980189;28;45331;-77
2021/10/23 05:09:07;;;;;;;;;8.50;7.00;;;;;11.93;67.16;102488.25;4984539;28;45407;-75
2021/10/23 05:11:33;;;;;;;;;11.00;9.50;;;;;11.95;67.49;102490.03;4993714;28;45548;-75
2021/10/23 05:13:58;;;;;;;;;11.25;8.00;;;;;11.93;67.40;102493.53;4980057;28;46009;-77
2021/10/23 05:16:24;;;;;;;;;9.25;9.25;;;;;11.94;67.20;102499.69;4980970;28;45300;-76
2021/10/23 05:18:49;;;;;;;;;9.75;9.50;;;;;11.95;67.46;102501.41;4989492;28;45271;-76
2021/10/23 05:21:19;;;;;;;;;8.00;8.00;;;;;11.96;67.15;102497.03;4975578;28;45915;-76
2021/10/23 05:23:45;;;;;;;;;9.00;8.00;;;;;11.96;67.35;102499.66;4982970;28;46194;-76
2021/10/23 05:26:12;;;;;;;;;6.25;6.25;;;;;11.96;67.18;102497.03;4963143;28;45283;-76
2021/10/23 05:28:37;;;;;;;;;8.75;8.75;;;;;11.96;67.06;102500.53;4980683;28;45444;-77
2021/10/23 05:31:04;;;;;;;;;10.75;9.75;;;;;11.96;67.05;102497.03;4979744;28;45306;-77
2021/10/23 05:33:29;;;;;;;;;10.25;9.50;;;;;11.95;67.27;102500.56;4980631;28;46179;-77
2021/10/23 05:35:55;;;;;;;;;8.50;8.50;;;;;11.95;66.89;102492.66;4980355;28;45263;-76
2021/10/23 05:38:20;;;;;;;;;10.75;7.75;;;;;11.97;67.08;102499.66;4980884;28;45411;-76
2021/10/23 05:40:45;;;;;;;;;12.50;9.25;;;;;11.98;67.39;102500.50;4980694;28;45425;-76
2021/10/23 05:43:11;;;;;;;;;9.50;9.50;;;;;11.99;67.37;102494.34;4980178;28;45344;-76
2021/10/23 05:45:36;;;;;;;;;7.50;7.50;;;;;11.98;67.38;102492.59;4979310;28;46839;-76
2021/10/23 05:48:01;;;;;;;;;10.00;9.00;;;;;11.98;67.17;102498.75;4979764;28;45407;-76
2021/10/23 05:50:27;;;;;;;;;9.25;6.00;;;;;12.00;67.39;102499.59;4981703;28;47090;-76
2021/10/23 05:52:52;;;;;;;;;11.75;11.00;;;;;12.01;67.04;102500.47;4962720;28;48573;-76
2021/10/23 05:55:17;;;;;;;;;12.00;8.50;;;;;12.02;67.38;102496.97;4992463;28;45393;-76
2021/10/23 05:57:43;;;;;;;;;9.75;9.75;;;;;12.01;67.16;102500.47;4981258;28;45290;-76
2021/10/23 06:00:10;;;;;;;;;8.00;6.00;;;;;12.00;67.50;102502.22;4980719;28;45478;-76
2021/10/23 06:02:37;;;;;;;;;12.50;7.00;;;;;12.02;67.42;102510.16;4962335;28;48255;-75
2021/10/23 06:05:03;;;;;;;;;8.25;5.75;;;;;12.00;67.12;102511.94;4980472;28;45533;-77
2021/10/23 06:07:36;;;;;;;;;10.00;9.00;;;;;12.01;67.49;102511.91;4981966;28;45430;-76
2021/10/23 06:10:04;;;;;;;;;9.75;9.25;;;;;12.00;67.53;102510.13;4978893;28;45634;-76
2021/10/23 06:12:30;;;;;;;;;8.75;7.50;;;;;12.01;67.17;102511.03;4979620;28;46604;-76
2021/10/23 06:14:57;;;;;;;;;8.25;8.25;;;;;12.01;67.04;102517.16;4989197;28;45480;-77
2021/10/23 06:17:23;;;;;;;;;9.25;8.00;;;;;12.03;67.31;102519.78;4985052;28;45241;-74
2021/10/23 06:19:48;;;;;;;;;8.00;6.25;;;;;12.02;67.36;102518.94;4978873;28;45475;-74
2021/10/23 06:22:14;;;;;;;;;11.50;8.75;;;;;12.01;67.36;102516.28;4980196;28;45671;-73
2021/10/23 06:24:39;;;;;;;;;5.75;5.00;;;;;12.02;67.05;102513.66;4980068;28;45756;-76
2021/10/23 06:27:05;;;;;;;;;9.25;6.25;;;;;12.00;67.27;102514.56;4980691;28;45219;-78
2021/10/23 06:29:32;;;;;;;;;9.75;7.75;;;;;11.99;67.15;102516.31;4980501;28;45478;-75
2021/10/23 06:31:58;;;;;;;;;2.50;1.25;;;;;12.00;67.42;102531.22;4980393;28;45411;-77
2021/10/23 06:34:23;;;;;;;;;7.00;7.00;;;;;12.00;67.21;102535.66;4984117;28;45980;-77
2021/10/23 06:36:49;;;;;;;;;8.50;7.00;;;;;12.02;67.54;102534.75;4986827;28;45340;-77
2021/10/23 06:39:14;;;;;;;;;8.00;6.75;;;;;12.02;67.29;102525.97;4980189;28;45254;-78
2021/10/23 06:41:40;;;;;;;;;5.25;5.25;;;;;12.01;67.23;102527.72;4979988;28;45491;-76
2021/10/23 06:44:07;;;;;;;;;6.00;6.00;;;;;12.06;67.21;102532.94;4978808;28;45291;-75
2021/10/23 06:46:36;;;;;;;;;7.00;7.00;;;;;12.06;67.03;102539.97;4980130;28;46774;-75
2021/10/23 06:49:03;;;;;;;;;8.00;8.00;;;;;12.08;67.03;102539.06;4979653;28;45269;-75
2021/10/23 06:51:28;;;;;;;;;10.75;8.25;;;;;12.08;67.30;102539.06;4980226;28;45289;-76
2021/10/23 06:53:56;;;;;;;;;8.00;7.00;;;;;12.11;67.19;102546.06;4977750;28;45329;-76
2021/10/23 06:56:22;;;;;;;;;13.25;10.00;;;;;12.12;66.99;102545.19;4979409;28;45416;-76
2021/10/23 06:58:48;;;;;;;;;11.75;9.00;;;;;12.13;67.42;102550.47;4979138;28;45455;-75
2021/10/23 07:01:13;;;;;;;;;10.75;9.00;;;;;12.13;67.39;102558.38;4979821;28;46406;-76
2021/10/23 07:03:38;;;;;;;;;7.50;7.25;;;;;12.12;66.31;102553.94;4979772;28;45302;-76
2021/10/23 07:06:04;;;;;;;;;8.00;8.00;;;;;12.17;66.33;102564.50;4979719;28;45230;-76
2021/10/23 07:08:29;;;;;;;;;7.75;7.75;;;;;12.20;66.92;102566.22;4980282;28;45260;-76
2021/10/23 07:10:55;;;;;;;;;7.75;7.00;;;;;12.24;66.91;102565.31;4979634;28;45604;-76
2021/10/23 07:13:20;;;;;;;;;12.00;8.50;;;;;12.24;67.15;102570.56;4979295;28;45360;-76
2021/10/23 07:15:45;;;;;;;;;8.50;6.75;;;;;12.29;66.53;102574.03;4979990;28;45480;-76
2021/10/23 07:18:11;;;;;;;;;10.75;8.25;;;;;12.32;66.45;102579.25;4979754;28;45407;-76
2021/10/23 07:20:37;;;;;;;;;7.75;7.00;;;;;12.36;66.74;102575.72;4979305;28;45528;-76
2021/10/23 07:23:03;;;;;;;;;10.00;10.00;;;;;12.38;66.60;102579.22;4980207;28;45149;-75
2021/10/23 07:25:29;;;;;;;;;8.75;8.75;;;;;12.44;66.71;102587.94;4992948;28;45315;-75
2021/10/23 07:27:54;;;;;;;;;8.25;8.25;;;;;12.46;66.93;102586.16;4979871;28;45439;-76
2021/10/23 07:30:20;;;;;;;;;16.25;11.50;;;;;12.51;66.77;102601.94;4979197;28;45304;-75
2021/10/23 07:32:45;;;;;;;;;9.00;9.00;;;;;12.54;67.05;102600.16;4980249;28;45316;-75
2021/10/23 07:35:11;;;;;;;;;9.00;8.00;;;;;12.60;67.33;102604.44;4979345;28;45296;-75
2021/10/23 07:37:38;;;;;;;;;14.75;10.25;;;;;12.64;67.08;102605.31;4978881;28;45563;-77
2021/10/23 07:40:06;;;;;;;;;10.25;8.00;;;;;12.68;67.10;102614.91;4979469;28;46231;-76
2021/10/23 07:42:31;;;;;;;;;8.25;8.25;;;;;12.69;66.95;102616.69;4979518;28;45295;-76
2021/10/23 07:44:58;;;;;;;;;8.75;7.50;;;;;12.75;66.85;102616.59;4980177;28;45413;-79
2021/10/23 07:47:23;;;;;;;;;10.25;9.00;;;;;12.82;67.24;102620.03;4979463;28;45209;-79
2021/10/23 07:49:49;;;;;;;;;7.25;6.25;;;;;12.86;66.84;102611.19;4979324;28;45617;-78
2021/10/23 07:52:15;;;;;;;;;9.00;7.25;;;;;12.91;66.46;102624.34;4978204;28;45337;-81
2021/10/23 07:54:42;;;;;;;;;8.50;8.50;;;;;12.95;66.55;102620.75;4992087;28;45407;-79
2021/10/23 07:57:07;;;;;;;;;9.75;9.00;;;;;13.01;66.28;102625.09;4982009;28;45528;-81
2021/10/23 07:59:33;;;;;;;;;11.75;9.75;;;;;13.03;66.35;102621.53;4981794;28;45352;-77
2021/10/23 08:02:00;;;;;;;;;15.50;10.75;;;;;13.08;66.24;102631.16;4982351;28;45380;-77
2021/10/23 08:04:28;;;;;;;;;18.25;12.25;;;;;13.17;66.07;102633.66;4993897;28;45213;-82
2021/10/23 08:06:54;;;;;;;;;12.75;12.00;;;;;13.20;65.39;102630.13;4979755;28;45527;-79
2021/10/23 08:09:20;;;;;;;;;11.00;11.00;;;;;13.23;65.56;102628.31;4981288;28;45479;-78
2021/10/23 08:11:45;;;;;;;;;12.25;12.00;;;;;13.29;66.03;102632.63;4980326;28;45345;-78
2021/10/23 08:14:12;;;;;;;;;11.25;11.25;;;;;13.33;65.07;102636.09;4982182;28;45420;-78
2021/10/23 08:16:38;;;;;;;;;12.00;11.25;;;;;13.39;65.40;102641.28;4980462;28;45641;-78
2021/10/23 08:19:03;;;;;;;;;12.50;11.75;;;;;13.40;65.31;102632.47;4960823;28;47934;-78
2021/10/23 08:21:29;;;;;;;;;15.00;11.00;;;;;13.43;65.27;102634.19;4973116;28;45412;-78
2021/10/23 08:23:54;;;;;;;;;13.25;12.75;;;;;13.48;65.57;102635.00;4982188;28;45248;-78
2021/10/23 08:26:20;;;;;;;;;13.50;13.50;;;;;13.50;65.65;102627.94;4986499;28;45395;-78
2021/10/23 08:28:45;;;;;;;;;20.50;15.75;;;;;13.57;65.32;102634.91;4981570;28;45463;-79
2021/10/23 08:31:11;;;;;;;;;19.50;15.00;;;;;13.60;65.35;102633.97;4979504;28;45401;-79
2021/10/23 08:33:37;;;;;;;;;15.75;14.00;;;;;13.64;65.19;102627.75;4979801;28;45510;-79
2021/10/23 08:36:03;;;;;;;;;16.00;14.75;;;;;13.65;64.84;102637.44;4981108;28;47291;-78
2021/10/23 08:38:28;;;;;;;;;17.50;16.25;;;;;13.65;65.72;102629.50;4979457;28;45348;-78
2021/10/23 08:40:54;;;;;;;;;20.00;19.50;;;;;13.70;65.51;102630.28;4974812;28;45466;-78
2021/10/23 08:43:21;;;;;;;;;19.25;16.50;;;;;13.77;65.35;102635.47;4972590;28;45466;-77
2021/10/23 08:45:47;;;;;;;;;22.50;18.50;;;;;13.77;64.90;102627.56;4979440;28;45479;-77
2021/10/23 08:48:15;;;;;;;;;22.50;18.50;;;;;13.81;65.35;102629.25;4981768;28;45395;-77
2021/10/23 08:50:41;;;;;;;;;20.25;18.50;;;;;13.84;64.78;102638.00;4979529;28;45269;-76
2021/10/23 08:53:07;;;;;;;;;20.50;19.50;;;;;13.84;64.48;102637.13;4979434;28;45178;-76
2021/10/23 08:55:33;;;;;;;;;21.00;19.00;;;;;13.89;64.28;102637.94;4980011;28;45435;-77
2021/10/23 08:57:59;;;;;;;;;23.75;18.50;;;;;13.91;64.08;102643.19;4980893;28;45465;-76
2021/10/23 09:00:25;;;;;;;;;20.00;16.50;;;;;13.93;64.05;102644.00;4980031;28;45403;-76
2021/10/23 09:02:51;;;;;;;;;21.50;19.25;;;;;13.94;64.38;102641.38;4979669;28;45422;-76
2021/10/23 09:05:16;;;;;;;;;19.00;18.75;;;;;13.96;64.23;102625.47;4961191;28;45631;-77
2021/10/23 09:07:47;;;;;;;;;23.00;18.75;;;;;14.02;64.00;102632.44;4979483;28;45602;-76
2021/10/23 09:10:21;;;;;;;;;19.50;16.75;;;;;14.01;64.05;102631.56;4980176;28;45289;-76
2021/10/23 09:12:46;;;;;;;;;19.00;17.25;;;;;14.06;63.92;102637.63;4979000;28;45445;-76
2021/10/23 09:15:15;;;;;;;;;18.25;16.00;;;;;14.11;63.64;102641.97;4976133;28;45537;-77
2021/10/23 09:17:47;;;;;;;;;21.25;20.00;;;;;14.12;64.29;102636.66;4975288;28;47278;-77
2021/10/23 09:20:15;;;;;;;;;19.50;17.50;;;;;14.22;63.68;102633.84;4975708;28;45772;-78
2021/10/23 09:22:43;;;;;;;;;18.00;16.50;;;;;14.25;63.92;102636.41;4975402;28;46967;-78
2021/10/23 09:25:21;;;;;;;;;20.50;18.25;;;;;14.29;63.88;102630.19;4970545;28;45518;-77
2021/10/23 09:28:05;;;;;;;;;19.75;18.00;;;;;14.34;63.39;102632.75;4975496;28;45609;-77
2021/10/23 09:30:33;;;;;;;;;21.50;19.00;;;;;14.37;63.60;102644.13;4958180;28;46058;-77
2021/10/23 09:33:08;;;;;;;;;21.25;20.00;;;;;14.42;63.13;102640.56;4960356;28;45716;-77
2021/10/23 09:35:35;;;;;;;;;18.50;17.75;;;;;14.43;63.17;102629.94;4962600;28;46138;-77
2021/10/23 09:38:02;;;;;;;;;19.50;14.25;;;;;14.50;62.85;102639.50;4973683;28;47235;-77
2021/10/23 09:40:29;;;;;;;;;15.50;15.50;;;;;14.53;62.31;102633.28;4978342;28;45738;-76
2021/10/23 09:43:18;;;;;;;;;17.75;16.75;;;;;14.59;62.54;102638.44;4981187;28;45217;-77
2021/10/23 09:46:05;;;;;;;;;21.00;17.50;;;;;14.63;61.67;102629.56;4978949;28;45840;-76
2021/10/23 09:48:34;;;;;;;;;19.75;18.50;;;;;14.67;62.41;102633.00;4979779;28;46510;-77
2021/10/23 09:51:21;;;;;;;;;19.75;18.75;;;;;14.69;62.00;102627.69;4980526;28;45202;-76
2021/10/23 09:53:49;;;;;;;;;16.50;15.00;;;;;14.73;61.92;102632.00;4979423;28;45203;-77
2021/10/23 09:56:22;;;;;;;;;20.50;18.50;;;;;14.75;61.08;102627.56;4980193;28;45308;-77
2021/10/23 09:59:07;;;;;;;;;16.25;15.00;;;;;14.73;61.15;102624.94;4962516;28;47390;-77
2021/10/23 10:01:44;;;;;;;;;16.75;14.25;;;;;14.74;60.65;102626.66;4979462;28;45460;-77
2021/10/23 10:04:15;;;;;;;;;17.25;16.25;;;;;14.73;61.51;102626.72;4963394;28;45421;-77
2021/10/23 10:06:45;;;;;;;;;15.00;14.50;;;;;14.75;60.92;102624.91;4959672;28;47162;-77
2021/10/23 10:09:12;;;;;;;;;16.50;15.00;;;;;14.73;61.12;102624.06;4980181;28;45451;-77
2021/10/23 10:11:39;;;;;;;;;23.00;17.50;;;;;14.72;60.67;102625.84;4979483;28;45357;-77
2021/10/23 10:14:06;;;;;;;;;9.50;8.50;;;;;14.71;60.38;102633.81;4975606;28;45277;-77
2021/10/23 10:16:32;;;;;;;;;15.50;12.50;;;;;14.73;61.19;102632.00;4973497;28;45882;-78
2021/10/23 10:18:58;;;;;;;;;16.25;16.25;;;;;14.75;61.16;102632.84;4979783;28;46463;-77
2021/10/23 10:21:24;;;;;;;;;19.00;16.25;;;;;14.75;60.92;102630.19;4980485;28;45203;-77
2021/10/23 10:23:52;;;;;;;;;17.00;14.50;;;;;14.74;60.48;102633.75;4980442;28;46648;-77
2021/10/23 10:26:21;;;;;;;;;20.25;16.00;;;;;14.70;60.74;102624.13;4980356;28;45399;-76
2021/10/23 10:29:10;;;;;;;;;18.50;16.00;;;;;14.69;61.15;102635.63;4980435;28;45227;-77
2021/10/23 10:32:14;;;;;;;;;22.00;16.75;;;;;14.65;61.03;102632.16;4980655;28;45696;-77
2021/10/23 10:42:57;;;;;;;;;16.25;16.25;;;;;14.49;60.14;102634.25;4980079;28;45850;-76
2021/10/23 10:45:48;;;;;;;;;13.50;11.50;;;;;14.46;60.70;102631.66;4980784;28;45393;-76
2021/10/23 10:48:15;;;;;;;;;13.50;11.00;;;;;14.42;59.69;102628.19;4980228;28;45480;-77
2021/10/23 10:50:52;;;;;;;;;12.00;10.50;;;;;14.40;60.03;102629.97;4962241;28;48091;-77
2021/10/23 10:53:23;;;;;;;;;14.50;11.50;;;;;14.42;60.63;102627.31;4980147;28;45427;-77
2021/10/23 10:55:54;;;;;;;;;8.00;8.00;;;;;14.47;61.07;102631.59;4959689;28;45497;-77
2021/10/23 10:58:38;;;;;;;;;9.00;7.50;;;;;14.49;59.92;102616.56;4978688;28;45282;-77
2021/10/23 11:01:13;;;;;;;;;11.25;9.50;;;;;14.52;59.87;102618.28;4979617;28;46405;-77
2021/10/23 11:03:40;;;;;;;;;14.00;10.50;;;;;14.48;58.86;102614.84;4979834;28;45353;-77
2021/10/23 11:06:30;;;;;;;;;11.25;9.25;;;;;14.46;59.40;102611.38;4963016;28;45529;-77
2021/10/23 11:09:11;;;;;;;;;11.25;10.00;;;;;14.47;59.12;102605.16;4980075;28;45629;-77
2021/10/23 11:11:42;;;;;;;;;12.25;12.25;;;;;14.46;59.66;102598.13;4979858;28;45291;-77
2021/10/23 11:14:09;;;;;;;;;17.75;10.75;;;;;14.49;60.11;102599.84;4988241;28;45426;-77
2021/10/23 11:16:35;;;;;;;;;13.75;12.75;;;;;14.54;60.18;102602.41;4996098;28;45380;-77
2021/10/23 11:19:02;;;;;;;;;13.25;12.00;;;;;14.54;60.04;102597.97;4981573;28;45379;-77
2021/10/23 11:21:28;;;;;;;;;15.75;13.75;;;;;14.57;60.13;102595.25;4962030;28;47081;-77
2021/10/23 11:23:54;;;;;;;;;12.25;11.25;;;;;14.61;59.82;102596.97;4980077;28;45469;-77